KEFD/EFD METAR and TAF weather

Enter ICAO airport designator
Station Type Date Time Source
KEFD METAR 2018/04/19 12:50 UTC NOAA

KEFD 191250Z 02010KT 10SM BKN070 19/05 A3027


Station Type Date Time Source
KEFD Decoded METAR 2018/04/19 12:50 UTC NOAA

Houston / Ellington, TX, United States (KEFD) 29-36N 095-10W
Apr 19, 2018 - 08:50 AM EDT / 2018.04.19 1250 UTC
Wind: from the NNE (020 degrees) at 12 MPH (10 KT):0
Visibility: 10 mile(s):0
Sky conditions: mostly cloudy
Temperature: 66 F (19 C)
Dew Point: 41 F (5 C)
Relative Humidity: 39%
Pressure (altimeter): 30.27 in. Hg (1025 hPa)
ob: KEFD 191250Z 02010KT 10SM BKN070 19/05 A3027
cycle: 13

Station Type Date Time Source
KEFD TAF 2018/04/19 04:57 UTC NOAA

TAF KEFD 190400Z 1904/2010 25009KT 9999 BKN030 QNH2996INS
BECMG 1909/1910 02009KT 9999 BKN040 QNH3009INS
BECMG 1914/1915 04015G25KT 9999 SKC QNH3018INS
BECMG 1917/1918 04012G18KT 9999 FEW140 QNH3020INS
BECMG 1923/1924 03009KT 9999 FEW140 QNH3019INS TX23/1921Z TN14/1910Z


Example: see airport list